AGGH/HIR METAR and TAF weather

Enter ICAO airport designator
Station Type Date Time Source
AGGH METAR 2019/12/13 22:00 UTC NOAA

AGGH 132200Z 18002KT 9999 FEW018 FEW020CB SCT300 31/26 Q1009


Station Type Date Time Source
AGGH Decoded METAR 2019/12/13 22:00 UTC NOAA

Honiara / Henderson, Solomon Islands (AGGH) 09-25S 160-03E 9M
Dec 13, 2019 - 05:00 PM EST / 2019.12.13 2200 UTC
Wind: from the S (180 degrees) at 2 MPH (2 KT):0
Visibility: greater than 7 mile(s):0
Sky conditions: partly cloudy
Weather: Cumulonimbus clouds observed
Temperature: 87 F (31 C)
Heat index: 99.7 F (37.6 C):1
Dew Point: 78 F (26 C)
Relative Humidity: 74%
Pressure (altimeter): 29.80 in. Hg (1009 hPa)
ob: AGGH 132200Z 18002KT 9999 FEW018 FEW020CB SCT300 31/26 Q1009
cycle: 22

Station Type Date Time Source
AGGH TAF 2019/12/13 18:03 UTC NOAA

TAF TAF AGGH 131700Z 1318/1418 02010KT 9999 FEW018 SCT030 PROB40 INTER 1318/1406 5000 TSSH BKN016 FEW017CB T 24 26 30 31 Q 1006 1008 1008 1006

Example: see airport list